Garden City Beach, South Carolina
Current Conditions -  °F | °C
As of 12:45 PM on Monday 22 Dec 2014 (Local Time) from KMYR Reporting Station
Haze Haze  
Wind Chill: 43°   Ceiling: 500
Heat Index: 46°   Visibility: 3mi
Dew Point: 43°   Wind: 7mph
Humidity: 87%   Direction: 360°N
Pressure: 30.04"   Gusts: NA
Location:  33.5501°N, 79.0592°W
Report Text: KMYR 221745Z 36006KT 3SM BR OVC005 08/06 A3004
Loading
Personal Weather Stations






























Interactive Weather Map New forecast layout! Learn more

10-Day Weather Forecast

Advertisements
Track Severe Weather on mobile